createdAt,value
2023-04-03T00:00:13.058Z,3.10
2023-04-03T00:01:12.903Z,3.10
2023-04-03T00:02:12.744Z,3.10
2023-04-03T00:03:13.718Z,3.00
2023-04-03T00:04:13.632Z,3.00
2023-04-03T00:05:13.929Z,3.00
2023-04-03T00:06:12.839Z,3.00
2023-04-03T00:07:13.746Z,3.10
2023-04-03T00:08:13.601Z,3.10
2023-04-03T00:09:13.407Z,2.90
2023-04-03T00:10:13.299Z,3.00
2023-04-03T00:11:13.306Z,3.00
2023-04-03T00:12:13.352Z,3.00
2023-04-03T00:13:13.376Z,2.90
2023-04-03T00:14:13.258Z,2.90
2023-04-03T00:15:13.191Z,3.00
2023-04-03T00:16:13.154Z,3.00
2023-04-03T00:17:12.992Z,2.70
2023-04-03T00:18:13.008Z,2.60
2023-04-03T00:19:12.899Z,2.60
2023-04-03T00:20:12.946Z,2.60
2023-04-03T00:21:13.330Z,2.60
2023-04-03T00:22:13.451Z,2.60
2023-04-03T00:23:13.453Z,2.60
2023-04-03T00:24:13.385Z,2.60
2023-04-03T00:25:13.354Z,2.70
2023-04-03T00:26:13.524Z,2.90
2023-04-03T00:27:13.561Z,3.00
2023-04-03T00:28:13.522Z,3.10
2023-04-03T00:29:13.585Z,3.20
2023-04-03T00:30:13.487Z,3.10
2023-04-03T00:31:13.943Z,3.30
2023-04-03T00:32:13.054Z,3.30
2023-04-03T00:33:13.076Z,3.40
2023-04-03T00:34:13.099Z,3.30
2023-04-03T00:35:13.006Z,3.30
2023-04-03T00:36:13.038Z,3.40
2023-04-03T00:37:13.190Z,3.30
2023-04-03T00:38:13.124Z,3.40
2023-04-03T00:39:13.113Z,3.30
2023-04-03T00:40:13.054Z,3.20
2023-04-03T00:41:13.056Z,3.20
2023-04-03T00:42:13.252Z,3.40
2023-04-03T00:43:13.166Z,3.30
2023-04-03T00:44:13.185Z,3.30
2023-04-03T00:45:13.048Z,3.20
2023-04-03T00:46:13.475Z,3.20
2023-04-03T00:47:13.572Z,3.40
2023-04-03T00:48:13.860Z,3.50
2023-04-03T00:49:13.796Z,3.40
2023-04-03T00:50:13.731Z,3.60
2023-04-03T00:51:13.935Z,3.30
2023-04-03T00:52:13.380Z,3.10
2023-04-03T00:53:13.701Z,3.30
2023-04-03T00:54:13.757Z,3.40
2023-04-03T00:55:14.130Z,3.30
2023-04-03T00:56:12.975Z,3.20
2023-04-03T00:57:13.188Z,3.20
2023-04-03T00:58:13.186Z,3.20
2023-04-03T00:59:13.194Z,3.20
2023-04-03T01:00:13.316Z,2.80
2023-04-03T01:01:14.437Z,2.70
2023-04-03T01:02:13.325Z,2.60
2023-04-03T01:03:13.447Z,2.60
2023-04-03T01:04:13.471Z,2.70
2023-04-03T01:05:13.385Z,2.70
2023-04-03T01:06:13.369Z,2.70
2023-04-03T01:07:18.420Z,2.70
2023-04-03T01:08:13.391Z,2.70
2023-04-03T01:09:13.224Z,2.80
2023-04-03T01:10:13.439Z,2.70
2023-04-03T01:11:13.347Z,2.70
2023-04-03T01:12:13.296Z,2.80
2023-04-03T01:13:13.200Z,2.80
2023-04-03T01:14:13.351Z,2.90
2023-04-03T01:15:13.244Z,3.00
2023-04-03T01:16:13.446Z,2.90
2023-04-03T01:17:13.673Z,2.90
2023-04-03T01:18:14.047Z,2.90
2023-04-03T01:19:12.929Z,3.00
2023-04-03T01:20:12.786Z,2.90
2023-04-03T01:21:14.377Z,3.00
2023-04-03T01:22:13.314Z,3.00
2023-04-03T01:23:13.608Z,3.00
2023-04-03T01:24:13.733Z,3.00
2023-04-03T01:25:13.714Z,3.10
2023-04-03T01:26:13.829Z,3.00
2023-04-03T01:27:12.889Z,3.00
2023-04-03T01:28:13.231Z,3.10
2023-04-03T01:29:13.252Z,3.10
2023-04-03T01:30:13.274Z,3.00
2023-04-03T01:31:14.412Z,3.00
2023-04-03T01:32:13.540Z,3.10
2023-04-03T01:33:13.570Z,3.10
2023-04-03T01:34:13.398Z,3.30
2023-04-03T01:35:13.456Z,3.10
2023-04-03T01:36:13.306Z,3.20
2023-04-03T01:37:13.811Z,3.10
2023-04-03T01:38:13.734Z,3.10
2023-04-03T01:39:13.690Z,3.00
2023-04-03T01:40:13.875Z,3.20
2023-04-03T01:41:13.734Z,3.20
2023-04-03T01:42:13.637Z,3.10
2023-04-03T01:43:13.566Z,3.10
2023-04-03T01:44:13.789Z,3.10
2023-04-03T01:45:13.857Z,2.90
2023-04-03T01:46:14.003Z,3.00
2023-04-03T01:47:13.070Z,3.10
2023-04-03T01:48:13.042Z,3.10
2023-04-03T01:49:12.995Z,3.00
2023-04-03T01:50:12.837Z,3.20
2023-04-03T01:51:13.814Z,3.00
2023-04-03T01:52:14.084Z,3.20
2023-04-03T01:53:13.001Z,3.30
2023-04-03T01:54:13.218Z,3.30
2023-04-03T01:55:13.401Z,3.20
2023-04-03T01:56:13.490Z,3.30
2023-04-03T01:57:13.554Z,3.20
2023-04-03T01:58:13.629Z,3.30
2023-04-03T01:59:13.732Z,3.40
2023-04-03T02:00:13.991Z,3.30
2023-04-03T02:01:13.046Z,3.00
2023-04-03T02:02:13.412Z,3.00
2023-04-03T02:03:13.325Z,3.20
2023-04-03T02:04:13.518Z,2.90
2023-04-03T02:05:13.672Z,2.90
2023-04-03T02:06:13.936Z,3.00
2023-04-03T02:07:13.104Z,2.90
2023-04-03T02:08:13.365Z,3.00
2023-04-03T02:09:13.277Z,3.00
2023-04-03T02:10:13.140Z,2.90
2023-04-03T02:11:13.355Z,3.00
2023-04-03T02:12:13.218Z,2.90
2023-04-03T02:13:13.471Z,3.00
2023-04-03T02:14:13.691Z,2.90
2023-04-03T02:15:13.859Z,2.90
2023-04-03T02:16:13.815Z,2.90
2023-04-03T02:17:13.964Z,3.10
2023-04-03T02:18:13.179Z,3.10
2023-04-03T02:19:13.233Z,3.20
2023-04-03T02:20:13.101Z,3.00
2023-04-03T02:21:12.951Z,3.00
2023-04-03T02:22:13.255Z,3.10
2023-04-03T02:23:13.047Z,3.10
2023-04-03T02:24:13.250Z,3.30
2023-04-03T02:25:13.419Z,3.20
2023-04-03T02:26:13.633Z,2.90
2023-04-03T02:27:13.640Z,3.30
2023-04-03T02:28:13.793Z,3.30
2023-04-03T02:29:13.808Z,3.40
2023-04-03T02:30:13.632Z,3.20
2023-04-03T02:31:13.784Z,3.30
2023-04-03T02:32:13.878Z,3.20
2023-04-03T02:33:13.731Z,3.10
2023-04-03T02:34:13.691Z,3.10
2023-04-03T02:35:13.511Z,3.00
2023-04-03T02:36:13.307Z,3.10
2023-04-03T02:37:13.407Z,2.90
2023-04-03T02:38:13.373Z,3.00
2023-04-03T02:39:13.238Z,3.00
2023-04-03T02:40:13.049Z,2.90
2023-04-03T02:41:13.053Z,3.00
2023-04-03T02:42:12.903Z,2.90
2023-04-03T02:43:12.749Z,3.00
2023-04-03T02:44:14.002Z,2.90
2023-04-03T02:45:13.044Z,2.80
2023-04-03T02:46:12.906Z,2.90
2023-04-03T02:47:12.736Z,3.20
2023-04-03T02:48:13.717Z,3.00
2023-04-03T02:49:13.668Z,3.00
2023-04-03T02:50:13.772Z,2.90
2023-04-03T02:51:13.694Z,2.80
2023-04-03T02:52:13.573Z,2.90
2023-04-03T02:53:13.558Z,2.90
2023-04-03T02:54:14.647Z,2.90
2023-04-03T02:55:13.741Z,3.10
2023-04-03T02:56:13.632Z,3.20
2023-04-03T02:57:13.726Z,2.90
2023-04-03T02:58:13.795Z,3.20
2023-04-03T02:59:13.715Z,2.80
2023-04-03T03:00:13.653Z,2.80
2023-04-03T03:01:13.924Z,2.90
2023-04-03T03:02:13.288Z,2.60
2023-04-03T03:03:13.339Z,2.70
2023-04-03T03:04:13.456Z,2.70
2023-04-03T03:05:13.565Z,2.90
2023-04-03T03:06:13.537Z,2.70
2023-04-03T03:07:13.518Z,2.80
2023-04-03T03:08:13.519Z,2.70
2023-04-03T03:09:13.381Z,3.00
2023-04-03T03:10:13.302Z,3.00
2023-04-03T03:11:13.540Z,2.80
2023-04-03T03:12:13.757Z,2.60
2023-04-03T03:13:13.648Z,2.80
2023-04-03T03:14:13.587Z,3.00
2023-04-03T03:15:13.691Z,2.60
2023-04-03T03:16:13.683Z,2.80
2023-04-03T03:17:13.657Z,2.90
2023-04-03T03:18:13.595Z,3.00
2023-04-03T03:19:13.530Z,2.80
2023-04-03T03:20:13.418Z,2.90
2023-04-03T03:21:13.348Z,2.60
2023-04-03T03:22:13.208Z,2.70
2023-04-03T03:23:13.299Z,2.80
2023-04-03T03:24:13.178Z,2.60
2023-04-03T03:25:13.290Z,2.90
2023-04-03T03:26:13.090Z,3.00
2023-04-03T03:27:13.209Z,3.00
2023-04-03T03:28:13.086Z,3.00
2023-04-03T03:29:13.290Z,3.10
2023-04-03T03:30:13.074Z,2.90
2023-04-03T03:31:13.276Z,3.00
2023-04-03T03:32:13.263Z,2.80
2023-04-03T03:33:13.295Z,2.80
2023-04-03T03:34:13.356Z,2.70
2023-04-03T03:35:13.484Z,2.60
2023-04-03T03:36:13.510Z,3.20
2023-04-03T03:37:14.667Z,3.20
2023-04-03T03:38:13.792Z,3.00
2023-04-03T03:39:13.790Z,2.90
2023-04-03T03:40:15.256Z,2.90
2023-04-03T03:41:13.182Z,2.80
2023-04-03T03:42:13.129Z,2.70
2023-04-03T03:43:13.323Z,2.60
2023-04-03T03:44:14.887Z,3.00
2023-04-03T03:45:13.673Z,2.60
2023-04-03T03:46:13.989Z,2.60
2023-04-03T03:47:12.890Z,2.60
2023-04-03T03:48:12.691Z,2.90
2023-04-03T03:49:13.817Z,2.90
2023-04-03T03:50:14.005Z,2.90
2023-04-03T03:51:13.094Z,3.00
2023-04-03T03:52:13.224Z,2.90
2023-04-03T03:53:13.148Z,3.00
2023-04-03T03:54:13.110Z,2.80
2023-04-03T03:55:13.030Z,2.60
2023-04-03T03:56:12.962Z,2.80
2023-04-03T03:57:12.881Z,2.70
2023-04-03T03:58:13.180Z,2.90
2023-04-03T03:59:13.828Z,2.70
2023-04-03T04:00:14.045Z,2.60
2023-04-03T04:01:13.030Z,2.70
2023-04-03T04:02:13.115Z,2.50
2023-04-03T04:03:13.324Z,2.60
2023-04-03T04:04:13.727Z,2.60
2023-04-03T04:05:13.790Z,2.70
2023-04-03T04:06:13.716Z,2.60
2023-04-03T04:07:13.596Z,2.70
2023-04-03T04:08:13.626Z,2.40
2023-04-03T04:09:13.557Z,2.80
2023-04-03T04:10:13.782Z,2.40
2023-04-03T04:11:13.721Z,2.40
2023-04-03T04:12:13.533Z,2.30
2023-04-03T04:13:13.735Z,2.40
2023-04-03T04:14:13.554Z,2.70
2023-04-03T04:15:13.649Z,2.60
2023-04-03T04:16:13.588Z,2.80
2023-04-03T04:17:13.459Z,2.50
2023-04-03T04:18:13.525Z,2.60
2023-04-03T04:19:13.574Z,2.40
2023-04-03T04:20:13.466Z,2.40
2023-04-03T04:21:13.452Z,2.30
2023-04-03T04:22:13.625Z,2.10
2023-04-03T04:23:13.777Z,2.10
2023-04-03T04:24:13.699Z,2.30
2023-04-03T04:25:13.677Z,2.30
2023-04-03T04:26:13.615Z,2.20
2023-04-03T04:27:13.557Z,2.40
2023-04-03T04:28:13.468Z,2.30
2023-04-03T04:29:13.625Z,2.30
2023-04-03T04:30:13.499Z,2.30
2023-04-03T04:31:13.406Z,2.30
2023-04-03T04:32:13.296Z,2.30
2023-04-03T04:33:13.161Z,2.50
2023-04-03T04:34:13.261Z,2.10
2023-04-03T04:35:16.172Z,2.10
2023-04-03T04:36:13.811Z,2.40
2023-04-03T04:37:14.150Z,2.40
2023-04-03T04:38:13.006Z,1.90
2023-04-03T04:39:12.946Z,1.90
2023-04-03T04:40:12.849Z,2.20
2023-04-03T04:41:14.129Z,2.00
2023-04-03T04:42:13.054Z,2.30
2023-04-03T04:43:13.191Z,2.10
2023-04-03T04:44:13.043Z,2.20
2023-04-03T04:45:13.253Z,2.30
2023-04-03T04:46:13.425Z,2.00
2023-04-03T04:47:13.776Z,2.10
2023-04-03T04:48:13.647Z,1.90
2023-04-03T04:49:13.518Z,2.00
2023-04-03T04:50:13.419Z,2.10
2023-04-03T04:51:13.330Z,2.00
2023-04-03T04:52:13.503Z,2.10
2023-04-03T04:53:13.463Z,2.00
2023-04-03T04:54:13.526Z,2.10
2023-04-03T04:55:13.509Z,2.10
2023-04-03T04:56:13.421Z,2.20
2023-04-03T04:57:13.449Z,1.90
2023-04-03T04:58:13.395Z,1.80
2023-04-03T04:59:13.527Z,2.00
2023-04-03T05:00:13.602Z,2.00
2023-04-03T05:01:13.470Z,1.70
2023-04-03T05:02:13.469Z,2.20
2023-04-03T05:03:13.413Z,2.00
2023-04-03T05:04:13.300Z,2.00
2023-04-03T05:05:13.691Z,2.00
2023-04-03T05:06:13.650Z,1.90
2023-04-03T05:07:13.584Z,2.10
2023-04-03T05:08:13.581Z,1.90
2023-04-03T05:09:13.831Z,1.60
2023-04-03T05:10:13.712Z,1.90
2023-04-03T05:11:13.609Z,1.90
2023-04-03T05:12:13.581Z,2.00
2023-04-03T05:13:13.959Z,1.90
2023-04-03T05:14:12.843Z,2.10
2023-04-03T05:15:13.716Z,2.20
2023-04-03T05:16:13.772Z,1.80
2023-04-03T05:17:13.808Z,2.00
2023-04-03T05:18:13.935Z,1.90
2023-04-03T05:19:12.871Z,2.20
2023-04-03T05:20:13.867Z,1.90
2023-04-03T05:21:14.231Z,2.30
2023-04-03T05:22:13.500Z,2.00
2023-04-03T05:23:13.313Z,2.00
2023-04-03T05:24:13.269Z,2.10
2023-04-03T05:25:13.379Z,1.90
2023-04-03T05:26:13.544Z,2.00
2023-04-03T05:27:13.523Z,1.90
2023-04-03T05:28:13.480Z,1.80
2023-04-03T05:29:13.396Z,2.00
2023-04-03T05:30:13.771Z,1.80
2023-04-03T05:31:13.755Z,2.20
2023-04-03T05:32:13.842Z,2.00
2023-04-03T05:33:13.932Z,1.90
2023-04-03T05:34:13.046Z,2.10
2023-04-03T05:35:12.904Z,2.10
2023-04-03T05:36:13.031Z,2.50
2023-04-03T05:37:13.016Z,2.20
2023-04-03T05:38:13.151Z,2.20
2023-04-03T05:39:13.350Z,2.40
2023-04-03T05:40:13.627Z,2.30
2023-04-03T05:41:13.814Z,2.10
2023-04-03T05:42:13.623Z,2.10
2023-04-03T05:43:13.667Z,2.20
2023-04-03T05:44:13.653Z,2.20
2023-04-03T05:45:13.716Z,2.20
2023-04-03T05:46:13.752Z,2.20
2023-04-03T05:47:13.575Z,2.30
2023-04-03T05:48:13.899Z,2.30
2023-04-03T05:49:14.202Z,2.40
2023-04-03T05:50:13.415Z,2.50
2023-04-03T05:51:13.463Z,1.90
2023-04-03T05:52:13.247Z,2.00
2023-04-03T05:53:13.094Z,2.10
2023-04-03T05:54:13.082Z,2.10
2023-04-03T05:55:12.957Z,2.30
2023-04-03T05:56:13.232Z,2.60
2023-04-03T05:57:13.203Z,2.80
2023-04-03T05:58:13.267Z,2.20
2023-04-03T05:59:13.163Z,1.90
2023-04-03T06:00:13.043Z,2.20
2023-04-03T06:01:12.945Z,2.10
2023-04-03T06:02:12.790Z,2.20
2023-04-03T06:03:13.997Z,1.90
2023-04-03T06:04:13.039Z,2.00
2023-04-03T06:05:13.024Z,2.10
2023-04-03T06:06:13.356Z,2.20
2023-04-03T06:07:13.422Z,2.20
2023-04-03T06:08:13.421Z,2.10
2023-04-03T06:09:13.408Z,2.10
2023-04-03T06:10:13.311Z,2.40
2023-04-03T06:11:13.172Z,2.20
2023-04-03T06:12:13.167Z,2.00
2023-04-03T06:13:13.411Z,2.20
2023-04-03T06:14:13.677Z,2.00
2023-04-03T06:15:13.859Z,2.50
2023-04-03T06:16:13.790Z,2.50
2023-04-03T06:17:12.875Z,2.10
2023-04-03T06:18:12.712Z,2.10
2023-04-03T06:19:13.532Z,2.30
2023-04-03T06:20:13.448Z,2.20
2023-04-03T06:21:13.457Z,2.50
2023-04-03T06:22:13.379Z,2.40
2023-04-03T06:23:13.890Z,2.50
2023-04-03T06:24:12.953Z,2.60
2023-04-03T06:25:12.774Z,2.30
2023-04-03T06:26:14.042Z,2.50
2023-04-03T06:27:13.367Z,2.60
2023-04-03T06:28:13.236Z,2.60
2023-04-03T06:29:13.674Z,2.60
2023-04-03T06:30:13.503Z,2.30
2023-04-03T06:32:13.056Z,2.70
2023-04-03T06:33:13.066Z,2.80
2023-04-03T06:34:13.078Z,2.30
2023-04-03T06:35:13.145Z,2.40
2023-04-03T06:36:13.568Z,2.60
2023-04-03T06:37:13.645Z,2.40
2023-04-03T06:38:13.765Z,2.50
2023-04-03T06:39:14.119Z,2.50
2023-04-03T06:40:13.006Z,2.60
2023-04-03T06:41:13.065Z,2.60
2023-04-03T06:42:13.006Z,2.70
2023-04-03T06:43:12.989Z,2.70
2023-04-03T06:44:13.129Z,2.60
2023-04-03T06:45:13.475Z,2.90
2023-04-03T06:46:13.651Z,2.40
2023-04-03T06:47:13.557Z,2.40
2023-04-03T06:48:13.477Z,2.60
2023-04-03T06:49:13.498Z,2.80
2023-04-03T06:50:13.468Z,3.00
2023-04-03T06:51:13.458Z,2.80
2023-04-03T06:52:13.311Z,2.70
2023-04-03T06:53:13.461Z,2.60
2023-04-03T06:54:18.573Z,2.80
2023-04-03T06:55:13.457Z,3.00
2023-04-03T06:56:13.569Z,2.90
2023-04-03T06:57:13.472Z,3.00
2023-04-03T06:58:13.453Z,3.10
2023-04-03T06:59:13.433Z,3.10
2023-04-03T07:00:13.285Z,2.90
2023-04-03T07:01:13.222Z,3.40
2023-04-03T07:02:13.066Z,3.70
2023-04-03T07:03:13.118Z,3.20
2023-04-03T07:04:13.278Z,3.00
2023-04-03T07:05:13.394Z,3.00
2023-04-03T07:06:13.436Z,3.10
2023-04-03T07:07:13.458Z,3.00
2023-04-03T07:08:13.313Z,3.40
2023-04-03T07:09:13.154Z,3.30
2023-04-03T07:10:13.157Z,3.50
2023-04-03T07:11:12.995Z,3.60
2023-04-03T07:12:13.062Z,3.30
2023-04-03T07:13:12.942Z,3.20
2023-04-03T07:14:13.028Z,3.40
2023-04-03T07:15:13.208Z,3.20
2023-04-03T07:16:13.505Z,3.00
2023-04-03T07:17:13.629Z,3.40
2023-04-03T07:18:13.568Z,3.40
2023-04-03T07:19:13.723Z,3.90
2023-04-03T07:20:13.919Z,3.80
2023-04-03T07:21:13.054Z,3.80
2023-04-03T07:22:12.949Z,4.00
2023-04-03T07:23:12.876Z,3.90
2023-04-03T07:24:16.249Z,3.80
2023-04-03T07:25:13.164Z,3.60
2023-04-03T07:26:13.149Z,3.60
2023-04-03T07:27:13.125Z,3.70
2023-04-03T07:28:13.244Z,3.30
2023-04-03T07:29:13.576Z,3.70
2023-04-03T07:30:13.520Z,3.90
2023-04-03T07:31:13.534Z,4.00
2023-04-03T07:32:13.489Z,4.00
2023-04-03T07:33:13.466Z,3.60
2023-04-03T07:34:13.396Z,3.40
2023-04-03T07:35:14.583Z,3.30
2023-04-03T07:36:13.925Z,3.50
2023-04-03T07:37:12.927Z,3.90
2023-04-03T07:38:13.083Z,3.60
2023-04-03T07:39:13.258Z,3.70
2023-04-03T07:40:13.361Z,3.70
2023-04-03T07:41:13.432Z,3.30
2023-04-03T07:42:13.298Z,3.30
2023-04-03T07:43:13.426Z,3.50
2023-04-03T07:44:14.510Z,3.50
2023-04-03T07:45:13.661Z,3.90
2023-04-03T07:46:13.864Z,3.70
2023-04-03T07:47:13.833Z,3.60
2023-04-03T07:48:13.840Z,3.30
2023-04-03T07:49:13.845Z,3.70
2023-04-03T07:50:13.702Z,3.90
2023-04-03T07:51:14.223Z,4.00
2023-04-03T07:52:13.367Z,4.20
2023-04-03T07:53:13.219Z,4.10
2023-04-03T07:54:13.634Z,3.90
2023-04-03T07:55:13.845Z,3.70
2023-04-03T07:56:13.688Z,4.10
2023-04-03T07:57:13.638Z,3.90
2023-04-03T07:58:13.983Z,4.00
2023-04-03T07:59:13.111Z,4.60
2023-04-03T08:00:13.236Z,4.50
2023-04-03T08:01:13.112Z,4.00
2023-04-03T08:02:13.278Z,4.40
2023-04-03T08:03:13.328Z,4.30
2023-04-03T08:04:13.592Z,4.40
2023-04-03T08:05:13.874Z,4.10
2023-04-03T08:06:16.230Z,4.10
2023-04-03T08:07:12.995Z,4.80
2023-04-03T08:08:12.939Z,4.80
2023-04-03T08:09:12.767Z,4.70
2023-04-03T08:10:13.582Z,4.80
2023-04-03T08:11:13.891Z,4.20
2023-04-03T08:12:13.115Z,4.40
2023-04-03T08:13:13.315Z,4.50
2023-04-03T08:14:13.292Z,4.40
2023-04-03T08:15:13.649Z,4.20
2023-04-03T08:16:14.031Z,4.50
2023-04-03T08:17:13.118Z,4.20
2023-04-03T08:18:13.415Z,4.50
2023-04-03T08:19:22.404Z,4.70
2023-04-03T08:20:12.773Z,4.70
2023-04-03T08:21:13.618Z,4.30
2023-04-03T08:22:13.416Z,4.60
2023-04-03T08:23:13.246Z,5.10
2023-04-03T08:24:13.256Z,4.90
2023-04-03T08:25:13.192Z,5.40
2023-04-03T08:26:13.207Z,5.30
2023-04-03T08:27:13.111Z,5.30
2023-04-03T08:28:13.126Z,5.40
2023-04-03T08:29:13.175Z,4.70
2023-04-03T08:30:13.116Z,4.50
2023-04-03T08:31:13.174Z,4.70
2023-04-03T08:32:13.265Z,4.70
2023-04-03T08:33:13.261Z,4.40
2023-04-03T08:34:13.178Z,4.70
2023-04-03T08:35:20.387Z,4.50
2023-04-03T08:36:13.697Z,4.80
2023-04-03T08:37:13.689Z,5.00
2023-04-03T08:38:15.921Z,5.20
2023-04-03T08:39:13.000Z,5.30
2023-04-03T08:40:12.937Z,4.70
2023-04-03T08:41:13.014Z,5.40
2023-04-03T08:42:13.381Z,5.50
2023-04-03T08:43:13.312Z,5.50
2023-04-03T08:44:13.518Z,5.70
2023-04-03T08:45:13.825Z,5.60
2023-04-03T08:46:14.013Z,5.80
2023-04-03T08:47:12.955Z,5.60
2023-04-03T08:48:12.987Z,5.70
2023-04-03T08:49:13.995Z,5.40
2023-04-03T08:50:13.052Z,5.10
2023-04-03T08:51:12.940Z,5.00
2023-04-03T08:52:13.098Z,5.40
2023-04-03T08:53:13.047Z,5.40
2023-04-03T08:54:12.857Z,5.40
2023-04-03T08:55:14.008Z,5.10
2023-04-03T08:56:13.083Z,5.40
2023-04-03T08:57:12.955Z,5.00
2023-04-03T08:58:13.175Z,5.20
2023-04-03T08:59:13.422Z,5.70
2023-04-03T09:00:13.694Z,5.40
2023-04-03T09:01:13.711Z,5.50
2023-04-03T09:02:13.800Z,5.70
2023-04-03T09:03:13.783Z,5.30
2023-04-03T09:04:13.991Z,4.90
2023-04-03T09:05:12.943Z,5.10
2023-04-03T09:06:12.804Z,4.90
2023-04-03T09:07:14.104Z,5.10
2023-04-03T09:08:13.172Z,5.20
2023-04-03T09:09:13.280Z,5.30
2023-04-03T09:10:13.379Z,6.00
2023-04-03T09:11:13.472Z,5.70
2023-04-03T09:12:13.334Z,5.70
2023-04-03T09:13:13.515Z,5.50
2023-04-03T09:14:13.397Z,6.30
2023-04-03T09:15:13.753Z,6.10
2023-04-03T09:16:13.722Z,6.50
2023-04-03T09:17:13.783Z,6.40
2023-04-03T09:18:13.706Z,6.00
2023-04-03T09:19:13.576Z,6.50
2023-04-03T09:20:13.494Z,6.60
2023-04-03T09:21:13.563Z,6.40
2023-04-03T09:22:13.677Z,6.50
2023-04-03T09:23:13.650Z,7.00
2023-04-03T09:24:13.804Z,7.00
2023-04-03T09:25:14.009Z,7.60
2023-04-03T09:26:12.901Z,8.40
2023-04-03T09:27:12.824Z,8.70
2023-04-03T09:28:14.128Z,9.50
2023-04-03T09:29:13.535Z,7.90
2023-04-03T09:30:13.666Z,7.10
2023-04-03T09:31:13.697Z,7.60
2023-04-03T09:32:13.804Z,8.60
2023-04-03T09:33:13.641Z,9.30
2023-04-03T09:34:13.787Z,9.80
2023-04-03T09:35:20.717Z,10.40
2023-04-03T09:36:13.647Z,8.90
2023-04-03T09:37:13.547Z,9.20
2023-04-03T09:38:13.387Z,9.30
2023-04-03T09:39:13.304Z,8.20
2023-04-03T09:40:13.360Z,8.40
2023-04-03T09:41:13.160Z,7.60
2023-04-03T09:42:13.020Z,8.40
2023-04-03T09:43:13.213Z,8.00
2023-04-03T09:44:13.376Z,7.90
2023-04-03T09:45:13.570Z,9.00
2023-04-03T09:46:13.406Z,8.60
2023-04-03T09:47:13.646Z,8.70
2023-04-03T09:48:16.245Z,9.70
2023-04-03T09:49:14.174Z,10.80
2023-04-03T09:50:13.110Z,10.10
2023-04-03T09:51:13.318Z,10.50
2023-04-03T09:52:13.196Z,9.30
2023-04-03T09:53:13.096Z,8.70
2023-04-03T09:54:13.015Z,9.30
2023-04-03T09:55:13.686Z,9.80
2023-04-03T09:56:13.670Z,8.40
2023-04-03T09:57:13.747Z,8.10
2023-04-03T09:58:13.632Z,9.30
2023-04-03T09:59:13.588Z,8.50
2023-04-03T10:00:13.453Z,8.60
2023-04-03T10:01:13.456Z,7.60
2023-04-03T10:02:13.365Z,7.70
2023-04-03T10:03:13.298Z,8.30
2023-04-03T10:04:13.253Z,8.00
2023-04-03T10:05:13.352Z,8.40
2023-04-03T10:06:13.329Z,8.30
2023-04-03T10:07:13.360Z,8.40
2023-04-03T10:08:13.243Z,8.50
2023-04-03T10:09:13.249Z,9.30
2023-04-03T10:10:13.152Z,9.90
2023-04-03T10:11:13.105Z,9.90
2023-04-03T10:12:13.538Z,10.70
2023-04-03T10:13:20.236Z,10.60
2023-04-03T10:14:13.193Z,10.40
2023-04-03T10:15:13.314Z,10.10
2023-04-03T10:16:13.214Z,8.80
2023-04-03T10:17:13.183Z,9.30
2023-04-03T10:18:24.059Z,9.70
2023-04-03T10:19:13.694Z,10.30
2023-04-03T10:20:13.637Z,11.00
2023-04-03T10:21:26.744Z,10.20
2023-04-03T10:22:13.531Z,9.90
2023-04-03T10:23:13.411Z,9.10
2023-04-03T10:24:13.431Z,9.40
2023-04-03T10:25:13.801Z,9.40
2023-04-03T10:26:14.714Z,9.40
2023-04-03T10:27:14.035Z,8.50
2023-04-03T10:28:13.203Z,9.30
2023-04-03T10:29:13.360Z,8.70
2023-04-03T10:30:13.911Z,9.20
2023-04-03T10:31:13.138Z,10.50
2023-04-03T10:32:13.271Z,10.10
2023-04-03T10:33:13.734Z,9.50
2023-04-03T10:34:13.651Z,9.00
2023-04-03T10:35:13.622Z,10.20
2023-04-03T10:36:13.706Z,10.20
2023-04-03T10:37:13.555Z,10.30
2023-04-03T10:38:13.418Z,9.60
2023-04-03T10:39:13.383Z,9.90
2023-04-03T10:40:13.376Z,9.70
2023-04-03T10:41:14.904Z,10.10
2023-04-03T10:42:17.734Z,9.50
2023-04-03T10:43:13.095Z,8.50
2023-04-03T10:44:13.005Z,9.10
2023-04-03T10:45:13.153Z,10.20
2023-04-03T10:46:13.129Z,10.50
2023-04-03T10:47:12.969Z,11.50
2023-04-03T10:48:12.915Z,10.70
2023-04-03T10:49:12.947Z,9.50
2023-04-03T10:50:12.973Z,10.00
2023-04-03T10:51:13.005Z,10.30
2023-04-03T10:52:12.955Z,10.50
2023-04-03T10:53:13.142Z,10.60
2023-04-03T10:54:13.067Z,10.70
2023-04-03T10:55:12.865Z,9.00
2023-04-03T10:56:13.712Z,8.20
2023-04-03T10:57:14.296Z,9.40
2023-04-03T10:58:13.214Z,9.80
2023-04-03T10:59:13.389Z,10.30
2023-04-03T11:00:13.287Z,10.50
2023-04-03T11:01:13.357Z,10.20
2023-04-03T11:02:13.335Z,10.70
2023-04-03T11:03:13.672Z,9.60
2023-04-03T11:04:13.633Z,9.30
2023-04-03T11:05:13.612Z,9.40
2023-04-03T11:06:13.514Z,9.30
2023-04-03T11:07:13.662Z,8.60
2023-04-03T11:08:13.681Z,9.10
2023-04-03T11:09:13.569Z,10.20
2023-04-03T11:10:14.757Z,10.70
2023-04-03T11:11:14.364Z,10.60
2023-04-03T11:12:13.376Z,9.80
2023-04-03T11:13:13.227Z,10.20
2023-04-03T11:14:13.259Z,9.30
2023-04-03T11:15:13.094Z,9.70
2023-04-03T11:16:13.193Z,9.80
2023-04-03T11:17:13.257Z,10.00
2023-04-03T11:18:13.254Z,9.80
2023-04-03T11:19:13.183Z,9.60
2023-04-03T11:20:13.256Z,10.30
2023-04-03T11:21:13.349Z,11.00
2023-04-03T11:22:13.561Z,10.40
2023-04-03T11:23:13.499Z,10.90
2023-04-03T11:24:13.821Z,12.00
2023-04-03T11:25:13.809Z,11.20
2023-04-03T11:26:13.755Z,11.70
2023-04-03T11:27:13.707Z,12.10
2023-04-03T11:28:13.591Z,10.70
2023-04-03T11:29:17.869Z,10.90
2023-04-03T11:30:12.782Z,11.80
2023-04-03T11:31:13.844Z,10.70
2023-04-03T11:32:13.789Z,11.40
2023-04-03T11:33:13.789Z,10.30
2023-04-03T11:34:13.659Z,11.60
2023-04-03T11:35:13.819Z,11.60
2023-04-03T11:36:25.922Z,12.40
2023-04-03T11:37:13.768Z,12.70
2023-04-03T11:38:13.972Z,13.10
2023-04-03T11:39:13.014Z,11.90
2023-04-03T11:40:13.153Z,10.90
2023-04-03T11:41:13.181Z,10.70
2023-04-03T11:42:13.443Z,10.10
2023-04-03T11:43:13.381Z,10.30
2023-04-03T11:44:13.331Z,11.60
2023-04-03T11:45:13.576Z,11.00
2023-04-03T11:46:13.699Z,10.40
2023-04-03T11:47:13.930Z,10.60
2023-04-03T11:48:23.874Z,10.70
2023-04-03T11:49:13.345Z,10.20
2023-04-03T11:50:13.265Z,11.70
2023-04-03T11:51:13.274Z,11.50
2023-04-03T11:52:13.153Z,12.00
2023-04-03T11:53:13.417Z,12.40
2023-04-03T11:54:13.370Z,11.30
2023-04-03T11:55:13.570Z,11.50
2023-04-03T11:56:13.588Z,11.00
2023-04-03T11:57:13.647Z,9.70
2023-04-03T11:58:14.073Z,9.90
2023-04-03T11:59:13.515Z,9.60
2023-04-03T12:00:13.579Z,10.60
2023-04-03T12:01:13.628Z,12.10
2023-04-03T12:02:13.841Z,12.10
2023-04-03T12:03:14.405Z,12.30
2023-04-03T12:04:14.480Z,11.90
2023-04-03T12:05:13.437Z,11.70
2023-04-03T12:06:13.414Z,11.90
2023-04-03T12:07:13.357Z,12.30
2023-04-03T12:08:13.133Z,11.60
2023-04-03T12:09:12.976Z,12.10
2023-04-03T12:10:18.239Z,12.20
2023-04-03T12:11:13.578Z,11.10
2023-04-03T12:12:13.579Z,10.70
2023-04-03T12:13:13.524Z,10.00
2023-04-03T12:14:13.352Z,10.70
2023-04-03T12:15:13.293Z,10.60
2023-04-03T12:16:13.196Z,10.70
2023-04-03T12:17:13.100Z,10.60
2023-04-03T12:19:13.413Z,11.70
2023-04-03T12:20:13.335Z,12.20
2023-04-03T12:21:13.240Z,11.10
2023-04-03T12:22:13.182Z,9.50
2023-04-03T12:23:13.266Z,9.70
2023-04-03T12:24:13.090Z,10.00
2023-04-03T12:25:13.207Z,10.80
2023-04-03T12:26:13.056Z,10.50
2023-04-03T12:27:13.055Z,9.90
2023-04-03T12:28:13.281Z,10.00
2023-04-03T12:29:13.286Z,9.70
2023-04-03T12:30:13.105Z,11.30
2023-04-03T12:31:13.105Z,10.50
2023-04-03T12:32:13.103Z,11.30
2023-04-03T12:33:14.008Z,10.90
2023-04-03T12:34:13.485Z,10.70
2023-04-03T12:35:13.755Z,11.00
2023-04-03T12:36:14.230Z,11.70
2023-04-03T12:37:13.574Z,11.20
2023-04-03T12:38:13.649Z,12.40
2023-04-03T12:39:13.636Z,11.80
2023-04-03T12:40:13.725Z,10.80
2023-04-03T12:41:14.010Z,12.10
2023-04-03T12:42:12.857Z,12.80
2023-04-03T12:43:13.849Z,11.50
2023-04-03T12:44:13.841Z,10.50
2023-04-03T12:45:13.754Z,10.30
2023-04-03T12:46:14.156Z,10.00
2023-04-03T12:47:13.214Z,10.20
2023-04-03T12:48:13.291Z,10.30
2023-04-03T12:49:13.257Z,10.80
2023-04-03T12:50:13.101Z,10.80
2023-04-03T12:51:13.057Z,9.90
2023-04-03T12:52:13.046Z,9.50
2023-04-03T12:53:13.986Z,10.60
2023-04-03T12:54:13.067Z,10.20
2023-04-03T12:55:13.091Z,10.00
2023-04-03T12:56:13.250Z,9.90
2023-04-03T12:57:13.392Z,10.90
2023-04-03T12:58:13.421Z,11.90
2023-04-03T12:59:13.295Z,11.90
2023-04-03T13:00:13.189Z,10.90
2023-04-03T13:01:13.089Z,10.50
2023-04-03T13:02:13.251Z,11.00
2023-04-03T13:03:13.420Z,10.20
2023-04-03T13:04:13.720Z,10.30
2023-04-03T13:05:13.572Z,10.30
2023-04-03T13:06:13.460Z,10.50
2023-04-03T13:07:13.374Z,11.30
2023-04-03T13:08:13.267Z,10.60
2023-04-03T13:09:13.141Z,10.60
2023-04-03T13:10:14.602Z,11.10
2023-04-03T13:11:13.351Z,10.50
2023-04-03T13:12:13.433Z,10.20
2023-04-03T13:13:13.415Z,11.00
2023-04-03T13:14:13.266Z,12.00
2023-04-03T13:15:13.230Z,12.70